sensor_id;sensor_type;location;lat;lon;timestamp;P1;durP1;ratioP1;P2;durP2;ratioP2
26774;SDS011;14362;51.902;7.626;2023-03-31T00:02:18;7.35;;;1.77;;
26774;SDS011;14362;51.902;7.626;2023-03-31T00:06:21;5.65;;;2.17;;
26774;SDS011;14362;51.902;7.626;2023-03-31T00:10:23;5.32;;;2.00;;
26774;SDS011;14362;51.902;7.626;2023-03-31T00:14:24;6.43;;;1.83;;
26774;SDS011;14362;51.902;7.626;2023-03-31T00:18:27;4.93;;;1.77;;
26774;SDS011;14362;51.902;7.626;2023-03-31T00:22:29;7.47;;;2.13;;
26774;SDS011;14362;51.902;7.626;2023-03-31T00:26:31;12.07;;;2.80;;
26774;SDS011;14362;51.902;7.626;2023-03-31T00:30:34;7.65;;;2.33;;
26774;SDS011;14362;51.902;7.626;2023-03-31T00:34:37;4.30;;;1.75;;
26774;SDS011;14362;51.902;7.626;2023-03-31T00:38:38;13.23;;;2.40;;
26774;SDS011;14362;51.902;7.626;2023-03-31T00:42:44;5.68;;;2.55;;
26774;SDS011;14362;51.902;7.626;2023-03-31T00:46:49;6.22;;;2.13;;
26774;SDS011;14362;51.902;7.626;2023-03-31T00:50:56;5.88;;;2.20;;
26774;SDS011;14362;51.902;7.626;2023-03-31T00:55:01;8.98;;;2.20;;
26774;SDS011;14362;51.902;7.626;2023-03-31T00:59:09;8.20;;;2.15;;
26774;SDS011;14362;51.902;7.626;2023-03-31T01:03:12;4.47;;;2.10;;
26774;SDS011;14362;51.902;7.626;2023-03-31T01:07:17;5.90;;;2.28;;
26774;SDS011;14362;51.902;7.626;2023-03-31T01:11:23;6.47;;;2.03;;
26774;SDS011;14362;51.902;7.626;2023-03-31T01:15:26;7.95;;;2.00;;
26774;SDS011;14362;51.902;7.626;2023-03-31T01:19:30;6.72;;;2.25;;
26774;SDS011;14362;51.902;7.626;2023-03-31T01:28:28;6.03;;;2.10;;
26774;SDS011;14362;51.902;7.626;2023-03-31T01:41:54;8.65;;;1.90;;
26774;SDS011;14362;51.902;7.626;2023-03-31T01:46:06;5.53;;;2.00;;
26774;SDS011;14362;51.902;7.626;2023-03-31T01:50:19;5.57;;;1.92;;
26774;SDS011;14362;51.902;7.626;2023-03-31T01:54:28;7.03;;;1.73;;
26774;SDS011;14362;51.902;7.626;2023-03-31T01:58:40;5.43;;;2.00;;
26774;SDS011;14362;51.902;7.626;2023-03-31T02:02:47;6.28;;;1.65;;
26774;SDS011;14362;51.902;7.626;2023-03-31T02:07:02;9.13;;;2.30;;
26774;SDS011;14362;51.902;7.626;2023-03-31T02:11:08;4.97;;;1.92;;
26774;SDS011;14362;51.902;7.626;2023-03-31T02:15:13;6.22;;;1.73;;
26774;SDS011;14362;51.902;7.626;2023-03-31T02:19:19;7.50;;;1.75;;
26774;SDS011;14362;51.902;7.626;2023-03-31T02:23:22;6.05;;;1.83;;
26774;SDS011;14362;51.902;7.626;2023-03-31T02:27:29;5.57;;;1.83;;
26774;SDS011;14362;51.902;7.626;2023-03-31T02:31:35;7.53;;;1.73;;
26774;SDS011;14362;51.902;7.626;2023-03-31T02:35:44;7.30;;;1.80;;
26774;SDS011;14362;51.902;7.626;2023-03-31T02:39:46;5.38;;;1.80;;
26774;SDS011;14362;51.902;7.626;2023-03-31T02:43:51;7.50;;;2.05;;
26774;SDS011;14362;51.902;7.626;2023-03-31T02:47:53;8.18;;;2.45;;
26774;SDS011;14362;51.902;7.626;2023-03-31T02:52:08;5.35;;;2.00;;
26774;SDS011;14362;51.902;7.626;2023-03-31T02:56:23;5.55;;;2.00;;
26774;SDS011;14362;51.902;7.626;2023-03-31T03:04:47;8.82;;;2.17;;
26774;SDS011;14362;51.902;7.626;2023-03-31T03:09:03;5.07;;;1.70;;
26774;SDS011;14362;51.902;7.626;2023-03-31T03:13:13;6.35;;;2.13;;
26774;SDS011;14362;51.902;7.626;2023-03-31T03:17:20;3.13;;;1.75;;
26774;SDS011;14362;51.902;7.626;2023-03-31T03:21:27;8.00;;;2.70;;
26774;SDS011;14362;51.902;7.626;2023-03-31T03:25:29;11.20;;;3.47;;
26774;SDS011;14362;51.902;7.626;2023-03-31T03:29:30;6.72;;;2.58;;
26774;SDS011;14362;51.902;7.626;2023-03-31T03:33:32;10.68;;;3.25;;
26774;SDS011;14362;51.902;7.626;2023-03-31T03:37:34;8.05;;;3.45;;
26774;SDS011;14362;51.902;7.626;2023-03-31T03:41:36;8.38;;;3.58;;
26774;SDS011;14362;51.902;7.626;2023-03-31T03:45:38;8.20;;;3.45;;
26774;SDS011;14362;51.902;7.626;2023-03-31T03:49:39;6.72;;;3.28;;
26774;SDS011;14362;51.902;7.626;2023-03-31T03:53:42;13.77;;;3.75;;
26774;SDS011;14362;51.902;7.626;2023-03-31T03:57:43;8.93;;;3.72;;
26774;SDS011;14362;51.902;7.626;2023-03-31T04:01:45;11.38;;;4.00;;
26774;SDS011;14362;51.902;7.626;2023-03-31T04:05:46;7.03;;;4.03;;
26774;SDS011;14362;51.902;7.626;2023-03-31T04:09:50;13.65;;;5.07;;
26774;SDS011;14362;51.902;7.626;2023-03-31T04:13:52;10.82;;;4.53;;
26774;SDS011;14362;51.902;7.626;2023-03-31T04:17:54;12.82;;;4.68;;
26774;SDS011;14362;51.902;7.626;2023-03-31T04:21:56;11.40;;;4.53;;
26774;SDS011;14362;51.902;7.626;2023-03-31T04:30:08;14.23;;;4.50;;
26774;SDS011;14362;51.902;7.626;2023-03-31T04:34:11;9.80;;;4.40;;
26774;SDS011;14362;51.902;7.626;2023-03-31T04:38:14;10.38;;;4.35;;
26774;SDS011;14362;51.902;7.626;2023-03-31T04:42:19;11.02;;;4.45;;
26774;SDS011;14362;51.902;7.626;2023-03-31T04:46:20;10.18;;;4.38;;
26774;SDS011;14362;51.902;7.626;2023-03-31T04:50:22;11.25;;;3.85;;
26774;SDS011;14362;51.902;7.626;2023-03-31T04:54:23;8.68;;;3.80;;
26774;SDS011;14362;51.902;7.626;2023-03-31T04:58:26;13.27;;;5.22;;
26774;SDS011;14362;51.902;7.626;2023-03-31T05:02:28;11.95;;;3.97;;
26774;SDS011;14362;51.902;7.626;2023-03-31T05:06:29;9.13;;;4.80;;
26774;SDS011;14362;51.902;7.626;2023-03-31T05:10:30;8.35;;;4.25;;
26774;SDS011;14362;51.902;7.626;2023-03-31T05:14:33;12.57;;;4.53;;
26774;SDS011;14362;51.902;7.626;2023-03-31T05:18:35;11.85;;;4.50;;
26774;SDS011;14362;51.902;7.626;2023-03-31T05:22:37;9.95;;;4.20;;
26774;SDS011;14362;51.902;7.626;2023-03-31T05:26:39;12.85;;;4.50;;
26774;SDS011;14362;51.902;7.626;2023-03-31T05:30:44;9.82;;;3.80;;
26774;SDS011;14362;51.902;7.626;2023-03-31T05:34:46;14.88;;;3.53;;
26774;SDS011;14362;51.902;7.626;2023-03-31T05:38:48;13.57;;;3.53;;
26774;SDS011;14362;51.902;7.626;2023-03-31T05:42:51;8.13;;;3.40;;
26774;SDS011;14362;51.902;7.626;2023-03-31T05:46:54;14.18;;;5.03;;
26774;SDS011;14362;51.902;7.626;2023-03-31T05:50:55;13.20;;;3.95;;
26774;SDS011;14362;51.902;7.626;2023-03-31T05:54:57;12.63;;;3.38;;
26774;SDS011;14362;51.902;7.626;2023-03-31T05:58:59;9.48;;;2.67;;
26774;SDS011;14362;51.902;7.626;2023-03-31T06:03:02;8.90;;;2.95;;
26774;SDS011;14362;51.902;7.626;2023-03-31T06:07:06;10.77;;;2.80;;
26774;SDS011;14362;51.902;7.626;2023-03-31T06:11:10;6.95;;;2.60;;
26774;SDS011;14362;51.902;7.626;2023-03-31T06:15:13;6.57;;;2.13;;
26774;SDS011;14362;51.902;7.626;2023-03-31T06:19:16;9.13;;;2.22;;
26774;SDS011;14362;51.902;7.626;2023-03-31T06:23:18;8.65;;;2.40;;
26774;SDS011;14362;51.902;7.626;2023-03-31T06:27:19;11.55;;;2.67;;
26774;SDS011;14362;51.902;7.626;2023-03-31T06:31:21;3.75;;;1.70;;
26774;SDS011;14362;51.902;7.626;2023-03-31T06:35:25;9.60;;;2.25;;
26774;SDS011;14362;51.902;7.626;2023-03-31T06:39:27;12.70;;;2.35;;
26774;SDS011;14362;51.902;7.626;2023-03-31T06:43:28;5.88;;;1.80;;
26774;SDS011;14362;51.902;7.626;2023-03-31T06:47:30;6.45;;;1.90;;
26774;SDS011;14362;51.902;7.626;2023-03-31T06:51:32;4.78;;;1.63;;
26774;SDS011;14362;51.902;7.626;2023-03-31T06:55:34;4.47;;;1.70;;
26774;SDS011;14362;51.902;7.626;2023-03-31T06:59:36;5.38;;;2.13;;
26774;SDS011;14362;51.902;7.626;2023-03-31T07:03:37;8.40;;;2.40;;
26774;SDS011;14362;51.902;7.626;2023-03-31T07:07:40;6.97;;;1.60;;
26774;SDS011;14362;51.902;7.626;2023-03-31T07:11:41;4.57;;;1.67;;
26774;SDS011;14362;51.902;7.626;2023-03-31T07:15:43;5.32;;;1.83;;
26774;SDS011;14362;51.902;7.626;2023-03-31T07:19:46;5.63;;;1.60;;
26774;SDS011;14362;51.902;7.626;2023-03-31T07:23:54;4.20;;;1.75;;
26774;SDS011;14362;51.902;7.626;2023-03-31T07:27:55;5.05;;;1.80;;
26774;SDS011;14362;51.902;7.626;2023-03-31T07:31:57;5.63;;;1.52;;
26774;SDS011;14362;51.902;7.626;2023-03-31T07:36:02;5.07;;;1.60;;
26774;SDS011;14362;51.902;7.626;2023-03-31T07:40:06;6.78;;;1.85;;
26774;SDS011;14362;51.902;7.626;2023-03-31T07:44:08;6.38;;;2.00;;
26774;SDS011;14362;51.902;7.626;2023-03-31T07:48:10;6.72;;;2.00;;
26774;SDS011;14362;51.902;7.626;2023-03-31T07:52:11;4.65;;;1.90;;
26774;SDS011;14362;51.902;7.626;2023-03-31T07:56:14;5.47;;;2.50;;
26774;SDS011;14362;51.902;7.626;2023-03-31T08:00:17;4.63;;;2.28;;
26774;SDS011;14362;51.902;7.626;2023-03-31T08:04:19;2.30;;;1.50;;
26774;SDS011;14362;51.902;7.626;2023-03-31T08:08:20;6.57;;;2.00;;
26774;SDS011;14362;51.902;7.626;2023-03-31T08:12:23;5.70;;;1.42;;
26774;SDS011;14362;51.902;7.626;2023-03-31T08:16:25;5.30;;;1.70;;
26774;SDS011;14362;51.902;7.626;2023-03-31T08:20:26;4.63;;;1.98;;
26774;SDS011;14362;51.902;7.626;2023-03-31T08:24:28;4.28;;;1.70;;
26774;SDS011;14362;51.902;7.626;2023-03-31T08:28:30;5.10;;;1.55;;
26774;SDS011;14362;51.902;7.626;2023-03-31T08:32:32;4.32;;;1.95;;
26774;SDS011;14362;51.902;7.626;2023-03-31T08:36:34;4.82;;;1.70;;
26774;SDS011;14362;51.902;7.626;2023-03-31T08:40:35;6.60;;;2.10;;
26774;SDS011;14362;51.902;7.626;2023-03-31T08:44:43;7.07;;;2.03;;
26774;SDS011;14362;51.902;7.626;2023-03-31T08:48:48;3.97;;;2.15;;
26774;SDS011;14362;51.902;7.626;2023-03-31T08:52:54;5.93;;;2.30;;
26774;SDS011;14362;51.902;7.626;2023-03-31T08:57:02;6.35;;;2.00;;
26774;SDS011;14362;51.902;7.626;2023-03-31T09:01:15;4.30;;;1.80;;
26774;SDS011;14362;51.902;7.626;2023-03-31T09:05:33;7.05;;;2.30;;
26774;SDS011;14362;51.902;7.626;2023-03-31T09:09:43;3.97;;;1.95;;
26774;SDS011;14362;51.902;7.626;2023-03-31T09:18:28;3.55;;;1.67;;
26774;SDS011;14362;51.902;7.626;2023-03-31T09:22:32;5.10;;;1.90;;
26774;SDS011;14362;51.902;7.626;2023-03-31T09:26:36;4.22;;;1.92;;
26774;SDS011;14362;51.902;7.626;2023-03-31T09:30:41;4.25;;;1.50;;
26774;SDS011;14362;51.902;7.626;2023-03-31T09:34:44;6.68;;;1.70;;
26774;SDS011;14362;51.902;7.626;2023-03-31T09:38:47;4.53;;;1.63;;
26774;SDS011;14362;51.902;7.626;2023-03-31T09:42:50;7.57;;;1.55;;
26774;SDS011;14362;51.902;7.626;2023-03-31T09:46:56;3.78;;;1.80;;
26774;SDS011;14362;51.902;7.626;2023-03-31T09:51:04;3.75;;;1.73;;
26774;SDS011;14362;51.902;7.626;2023-03-31T09:55:14;8.68;;;2.40;;
26774;SDS011;14362;51.902;7.626;2023-03-31T09:59:20;5.55;;;1.80;;
26774;SDS011;14362;51.902;7.626;2023-03-31T10:03:22;6.60;;;1.83;;
26774;SDS011;14362;51.902;7.626;2023-03-31T10:07:28;6.70;;;2.07;;
26774;SDS011;14362;51.902;7.626;2023-03-31T10:11:29;3.47;;;1.95;;
26774;SDS011;14362;51.902;7.626;2023-03-31T10:15:31;4.43;;;2.35;;
26774;SDS011;14362;51.902;7.626;2023-03-31T10:19:38;6.45;;;2.60;;
26774;SDS011;14362;51.902;7.626;2023-03-31T10:23:49;9.77;;;3.33;;
26774;SDS011;14362;51.902;7.626;2023-03-31T10:27:52;6.88;;;2.78;;
26774;SDS011;14362;51.902;7.626;2023-03-31T10:31:56;6.68;;;2.47;;
26774;SDS011;14362;51.902;7.626;2023-03-31T10:36:06;5.82;;;2.53;;
26774;SDS011;14362;51.902;7.626;2023-03-31T10:40:13;7.32;;;2.50;;
26774;SDS011;14362;51.902;7.626;2023-03-31T10:44:30;6.60;;;2.47;;
26774;SDS011;14362;51.902;7.626;2023-03-31T10:48:34;7.63;;;2.42;;
26774;SDS011;14362;51.902;7.626;2023-03-31T10:52:42;5.85;;;2.10;;
26774;SDS011;14362;51.902;7.626;2023-03-31T10:56:47;8.23;;;2.53;;
26774;SDS011;14362;51.902;7.626;2023-03-31T11:00:56;5.38;;;2.40;;
26774;SDS011;14362;51.902;7.626;2023-03-31T11:05:10;4.47;;;2.03;;
26774;SDS011;14362;51.902;7.626;2023-03-31T11:09:19;7.30;;;2.22;;
26774;SDS011;14362;51.902;7.626;2023-03-31T11:13:35;5.45;;;2.10;;
26774;SDS011;14362;51.902;7.626;2023-03-31T11:17:47;3.85;;;2.13;;
26774;SDS011;14362;51.902;7.626;2023-03-31T11:22:00;6.05;;;2.45;;
26774;SDS011;14362;51.902;7.626;2023-03-31T11:26:09;7.63;;;2.80;;
26774;SDS011;14362;51.902;7.626;2023-03-31T11:30:21;8.77;;;2.78;;
26774;SDS011;14362;51.902;7.626;2023-03-31T11:34:41;5.28;;;2.30;;
26774;SDS011;14362;51.902;7.626;2023-03-31T11:38:56;7.30;;;2.40;;
26774;SDS011;14362;51.902;7.626;2023-03-31T11:43:04;6.38;;;3.03;;
26774;SDS011;14362;51.902;7.626;2023-03-31T11:47:13;6.70;;;2.30;;
26774;SDS011;14362;51.902;7.626;2023-03-31T11:51:19;7.75;;;2.58;;
26774;SDS011;14362;51.902;7.626;2023-03-31T11:55:25;4.82;;;2.15;;
26774;SDS011;14362;51.902;7.626;2023-03-31T11:59:30;6.75;;;2.72;;
26774;SDS011;14362;51.902;7.626;2023-03-31T12:03:36;8.70;;;2.13;;
26774;SDS011;14362;51.902;7.626;2023-03-31T12:07:44;5.70;;;2.30;;
26774;SDS011;14362;51.902;7.626;2023-03-31T12:11:51;7.38;;;2.40;;
26774;SDS011;14362;51.902;7.626;2023-03-31T12:15:57;9.23;;;3.30;;
26774;SDS011;14362;51.902;7.626;2023-03-31T12:20:10;12.95;;;3.35;;
26774;SDS011;14362;51.902;7.626;2023-03-31T12:24:16;8.27;;;2.90;;
26774;SDS011;14362;51.902;7.626;2023-03-31T12:28:17;6.65;;;2.58;;
26774;SDS011;14362;51.902;7.626;2023-03-31T12:32:21;5.75;;;1.90;;
26774;SDS011;14362;51.902;7.626;2023-03-31T12:36:32;7.28;;;2.97;;
26774;SDS011;14362;51.902;7.626;2023-03-31T12:40:48;6.40;;;2.42;;
26774;SDS011;14362;51.902;7.626;2023-03-31T12:44:58;8.20;;;2.50;;
26774;SDS011;14362;51.902;7.626;2023-03-31T12:49:10;6.53;;;2.53;;
26774;SDS011;14362;51.902;7.626;2023-03-31T12:53:22;9.50;;;2.95;;
26774;SDS011;14362;51.902;7.626;2023-03-31T12:57:31;10.65;;;3.40;;
26774;SDS011;14362;51.902;7.626;2023-03-31T13:01:32;8.07;;;2.53;;
26774;SDS011;14362;51.902;7.626;2023-03-31T13:05:44;6.45;;;2.22;;
26774;SDS011;14362;51.902;7.626;2023-03-31T13:09:50;4.55;;;2.20;;
26774;SDS011;14362;51.902;7.626;2023-03-31T13:13:58;7.72;;;2.97;;
26774;SDS011;14362;51.902;7.626;2023-03-31T13:18:02;6.50;;;2.22;;
26774;SDS011;14362;51.902;7.626;2023-03-31T13:22:05;8.15;;;3.33;;
26774;SDS011;14362;51.902;7.626;2023-03-31T13:26:21;9.18;;;2.53;;
26774;SDS011;14362;51.902;7.626;2023-03-31T13:30:46;9.43;;;2.78;;
26774;SDS011;14362;51.902;7.626;2023-03-31T13:34:54;6.82;;;2.20;;
26774;SDS011;14362;51.902;7.626;2023-03-31T13:39:06;8.80;;;2.75;;
26774;SDS011;14362;51.902;7.626;2023-03-31T13:43:38;10.52;;;2.85;;
26774;SDS011;14362;51.902;7.626;2023-03-31T13:47:51;7.65;;;2.67;;
26774;SDS011;14362;51.902;7.626;2023-03-31T13:52:08;8.45;;;2.38;;
26774;SDS011;14362;51.902;7.626;2023-03-31T13:56:23;8.77;;;2.70;;
26774;SDS011;14362;51.902;7.626;2023-03-31T14:00:42;10.02;;;2.38;;
26774;SDS011;14362;51.902;7.626;2023-03-31T14:05:16;6.85;;;2.58;;
26774;SDS011;14362;51.902;7.626;2023-03-31T14:09:24;9.43;;;2.90;;
26774;SDS011;14362;51.902;7.626;2023-03-31T14:13:29;6.45;;;2.42;;
26774;SDS011;14362;51.902;7.626;2023-03-31T14:17:32;7.20;;;2.15;;
26774;SDS011;14362;51.902;7.626;2023-03-31T14:21:37;7.68;;;2.60;;
26774;SDS011;14362;51.902;7.626;2023-03-31T14:25:48;6.47;;;2.92;;
26774;SDS011;14362;51.902;7.626;2023-03-31T14:29:54;7.80;;;2.35;;
26774;SDS011;14362;51.902;7.626;2023-03-31T14:34:08;8.90;;;2.53;;
26774;SDS011;14362;51.902;7.626;2023-03-31T14:38:23;8.18;;;2.70;;
26774;SDS011;14362;51.902;7.626;2023-03-31T14:42:31;8.23;;;2.38;;
26774;SDS011;14362;51.902;7.626;2023-03-31T14:46:38;9.82;;;2.63;;
26774;SDS011;14362;51.902;7.626;2023-03-31T14:50:43;8.50;;;2.50;;
26774;SDS011;14362;51.902;7.626;2023-03-31T14:54:46;9.10;;;2.55;;
26774;SDS011;14362;51.902;7.626;2023-03-31T14:58:48;8.80;;;2.72;;
26774;SDS011;14362;51.902;7.626;2023-03-31T15:02:52;8.38;;;2.95;;
26774;SDS011;14362;51.902;7.626;2023-03-31T15:06:56;9.45;;;3.47;;
26774;SDS011;14362;51.902;7.626;2023-03-31T15:11:01;10.70;;;3.17;;
26774;SDS011;14362;51.902;7.626;2023-03-31T15:15:07;12.13;;;3.25;;
26774;SDS011;14362;51.902;7.626;2023-03-31T15:19:13;9.32;;;2.95;;
26774;SDS011;14362;51.902;7.626;2023-03-31T15:23:19;10.50;;;2.83;;
26774;SDS011;14362;51.902;7.626;2023-03-31T15:27:27;9.48;;;3.55;;
26774;SDS011;14362;51.902;7.626;2023-03-31T15:31:34;7.35;;;2.63;;
26774;SDS011;14362;51.902;7.626;2023-03-31T15:35:35;7.78;;;2.20;;
26774;SDS011;14362;51.902;7.626;2023-03-31T15:39:38;8.95;;;2.67;;
26774;SDS011;14362;51.902;7.626;2023-03-31T15:43:47;11.98;;;2.70;;
26774;SDS011;14362;51.902;7.626;2023-03-31T15:47:50;12.55;;;3.67;;
26774;SDS011;14362;51.902;7.626;2023-03-31T15:51:53;10.30;;;3.10;;
26774;SDS011;14362;51.902;7.626;2023-03-31T15:55:57;11.07;;;3.33;;
26774;SDS011;14362;51.902;7.626;2023-03-31T16:00:01;9.13;;;3.70;;
26774;SDS011;14362;51.902;7.626;2023-03-31T16:04:07;7.65;;;3.00;;
26774;SDS011;14362;51.902;7.626;2023-03-31T16:08:12;11.90;;;3.15;;
26774;SDS011;14362;51.902;7.626;2023-03-31T16:12:19;11.13;;;3.13;;
26774;SDS011;14362;51.902;7.626;2023-03-31T16:16:24;7.90;;;2.72;;
26774;SDS011;14362;51.902;7.626;2023-03-31T16:20:27;7.75;;;2.60;;
26774;SDS011;14362;51.902;7.626;2023-03-31T16:24:36;6.88;;;1.92;;
26774;SDS011;14362;51.902;7.626;2023-03-31T16:28:38;7.65;;;2.25;;
26774;SDS011;14362;51.902;7.626;2023-03-31T16:37:00;6.53;;;1.83;;
26774;SDS011;14362;51.902;7.626;2023-03-31T16:41:08;8.05;;;2.05;;
26774;SDS011;14362;51.902;7.626;2023-03-31T16:45:11;4.68;;;1.65;;
26774;SDS011;14362;51.902;7.626;2023-03-31T16:49:12;5.20;;;1.70;;
26774;SDS011;14362;51.902;7.626;2023-03-31T16:53:15;6.50;;;1.65;;
26774;SDS011;14362;51.902;7.626;2023-03-31T16:57:18;4.47;;;1.63;;
26774;SDS011;14362;51.902;7.626;2023-03-31T17:01:21;3.55;;;1.50;;
26774;SDS011;14362;51.902;7.626;2023-03-31T17:05:22;2.40;;;1.30;;
26774;SDS011;14362;51.902;7.626;2023-03-31T17:09:24;5.50;;;1.80;;
26774;SDS011;14362;51.902;7.626;2023-03-31T17:13:26;5.50;;;1.75;;
26774;SDS011;14362;51.902;7.626;2023-03-31T17:17:29;5.93;;;1.70;;
26774;SDS011;14362;51.902;7.626;2023-03-31T17:21:30;8.52;;;2.35;;
26774;SDS011;14362;51.902;7.626;2023-03-31T17:25:32;5.90;;;2.10;;
26774;SDS011;14362;51.902;7.626;2023-03-31T17:29:35;6.28;;;2.38;;
26774;SDS011;14362;51.902;7.626;2023-03-31T17:33:37;5.95;;;2.00;;
26774;SDS011;14362;51.902;7.626;2023-03-31T17:37:40;4.07;;;1.87;;
26774;SDS011;14362;51.902;7.626;2023-03-31T17:41:43;5.75;;;2.30;;
26774;SDS011;14362;51.902;7.626;2023-03-31T17:45:44;4.88;;;1.60;;
26774;SDS011;14362;51.902;7.626;2023-03-31T17:49:47;6.50;;;2.00;;
26774;SDS011;14362;51.902;7.626;2023-03-31T17:53:49;7.78;;;2.20;;
26774;SDS011;14362;51.902;7.626;2023-03-31T17:57:50;4.35;;;2.17;;
26774;SDS011;14362;51.902;7.626;2023-03-31T18:01:52;7.43;;;2.33;;
26774;SDS011;14362;51.902;7.626;2023-03-31T18:05:54;3.20;;;1.60;;
26774;SDS011;14362;51.902;7.626;2023-03-31T18:09:56;3.70;;;1.70;;
26774;SDS011;14362;51.902;7.626;2023-03-31T18:13:58;4.60;;;1.75;;
26774;SDS011;14362;51.902;7.626;2023-03-31T18:18:01;6.75;;;2.00;;
26774;SDS011;14362;51.902;7.626;2023-03-31T18:22:04;7.10;;;1.88;;
26774;SDS011;14362;51.902;7.626;2023-03-31T18:26:06;4.20;;;1.80;;
26774;SDS011;14362;51.902;7.626;2023-03-31T18:30:08;3.47;;;1.58;;
26774;SDS011;14362;51.902;7.626;2023-03-31T18:34:10;4.97;;;1.40;;
26774;SDS011;14362;51.902;7.626;2023-03-31T18:38:13;7.75;;;1.83;;
26774;SDS011;14362;51.902;7.626;2023-03-31T18:42:15;5.15;;;1.92;;
26774;SDS011;14362;51.902;7.626;2023-03-31T18:46:18;4.22;;;1.65;;
26774;SDS011;14362;51.902;7.626;2023-03-31T18:50:20;3.72;;;1.40;;
26774;SDS011;14362;51.902;7.626;2023-03-31T18:54:24;5.68;;;1.70;;
26774;SDS011;14362;51.902;7.626;2023-03-31T18:58:26;6.00;;;1.90;;
26774;SDS011;14362;51.902;7.626;2023-03-31T19:02:29;3.38;;;1.55;;
26774;SDS011;14362;51.902;7.626;2023-03-31T19:06:30;3.42;;;1.60;;
26774;SDS011;14362;51.902;7.626;2023-03-31T19:10:33;4.68;;;1.70;;
26774;SDS011;14362;51.902;7.626;2023-03-31T19:14:35;4.93;;;2.00;;
26774;SDS011;14362;51.902;7.626;2023-03-31T19:18:37;4.30;;;1.95;;
26774;SDS011;14362;51.902;7.626;2023-03-31T19:22:38;5.95;;;2.50;;
26774;SDS011;14362;51.902;7.626;2023-03-31T19:26:41;7.78;;;2.63;;
26774;SDS011;14362;51.902;7.626;2023-03-31T19:30:43;4.13;;;1.90;;
26774;SDS011;14362;51.902;7.626;2023-03-31T19:34:44;5.78;;;2.20;;
26774;SDS011;14362;51.902;7.626;2023-03-31T19:38:46;5.43;;;2.35;;
26774;SDS011;14362;51.902;7.626;2023-03-31T19:42:49;5.50;;;2.67;;
26774;SDS011;14362;51.902;7.626;2023-03-31T19:46:50;5.40;;;2.00;;
26774;SDS011;14362;51.902;7.626;2023-03-31T19:50:52;3.95;;;2.45;;
26774;SDS011;14362;51.902;7.626;2023-03-31T19:54:55;7.45;;;2.03;;
26774;SDS011;14362;51.902;7.626;2023-03-31T19:58:58;4.50;;;2.40;;
26774;SDS011;14362;51.902;7.626;2023-03-31T20:02:59;5.28;;;2.20;;
26774;SDS011;14362;51.902;7.626;2023-03-31T20:07:00;12.65;;;3.35;;
26774;SDS011;14362;51.902;7.626;2023-03-31T20:11:03;6.38;;;2.20;;
26774;SDS011;14362;51.902;7.626;2023-03-31T20:15:07;5.50;;;1.90;;
26774;SDS011;14362;51.902;7.626;2023-03-31T20:19:09;7.10;;;2.30;;
26774;SDS011;14362;51.902;7.626;2023-03-31T20:23:11;5.30;;;1.70;;
26774;SDS011;14362;51.902;7.626;2023-03-31T20:27:13;5.53;;;2.10;;
26774;SDS011;14362;51.902;7.626;2023-03-31T20:31:17;6.35;;;1.88;;
26774;SDS011;14362;51.902;7.626;2023-03-31T20:35:20;5.75;;;1.80;;
26774;SDS011;14362;51.902;7.626;2023-03-31T20:39:21;3.47;;;1.63;;
26774;SDS011;14362;51.902;7.626;2023-03-31T20:43:23;3.95;;;1.58;;
26774;SDS011;14362;51.902;7.626;2023-03-31T20:47:26;3.35;;;1.70;;
26774;SDS011;14362;51.902;7.626;2023-03-31T20:51:29;11.32;;;2.58;;
26774;SDS011;14362;51.902;7.626;2023-03-31T20:55:31;5.53;;;1.85;;
26774;SDS011;14362;51.902;7.626;2023-03-31T20:59:33;4.70;;;2.30;;
26774;SDS011;14362;51.902;7.626;2023-03-31T21:03:36;3.90;;;1.80;;
26774;SDS011;14362;51.902;7.626;2023-03-31T21:07:37;8.60;;;2.13;;
26774;SDS011;14362;51.902;7.626;2023-03-31T21:11:39;5.18;;;1.80;;
26774;SDS011;14362;51.902;7.626;2023-03-31T21:15:40;3.42;;;2.20;;
26774;SDS011;14362;51.902;7.626;2023-03-31T21:19:48;5.45;;;2.08;;
26774;SDS011;14362;51.902;7.626;2023-03-31T21:23:50;6.47;;;2.30;;
26774;SDS011;14362;51.902;7.626;2023-03-31T21:27:51;9.38;;;2.35;;
26774;SDS011;14362;51.902;7.626;2023-03-31T21:31:53;5.72;;;1.95;;
26774;SDS011;14362;51.902;7.626;2023-03-31T21:35:56;6.22;;;3.10;;
26774;SDS011;14362;51.902;7.626;2023-03-31T21:39:58;6.72;;;2.63;;
26774;SDS011;14362;51.902;7.626;2023-03-31T21:43:59;5.38;;;2.25;;
26774;SDS011;14362;51.902;7.626;2023-03-31T21:48:02;9.98;;;3.00;;
26774;SDS011;14362;51.902;7.626;2023-03-31T21:52:05;6.30;;;3.17;;
26774;SDS011;14362;51.902;7.626;2023-03-31T21:56:07;5.90;;;2.88;;
26774;SDS011;14362;51.902;7.626;2023-03-31T22:00:09;11.27;;;2.92;;
26774;SDS011;14362;51.902;7.626;2023-03-31T22:04:13;5.43;;;3.17;;
26774;SDS011;14362;51.902;7.626;2023-03-31T22:08:16;4.30;;;2.80;;
26774;SDS011;14362;51.902;7.626;2023-03-31T22:12:17;5.55;;;2.75;;
26774;SDS011;14362;51.902;7.626;2023-03-31T22:16:20;7.03;;;3.38;;
26774;SDS011;14362;51.902;7.626;2023-03-31T22:20:22;6.20;;;2.67;;
26774;SDS011;14362;51.902;7.626;2023-03-31T22:24:26;4.85;;;2.92;;
26774;SDS011;14362;51.902;7.626;2023-03-31T22:28:27;4.90;;;2.60;;
26774;SDS011;14362;51.902;7.626;2023-03-31T22:32:29;7.30;;;3.20;;
26774;SDS011;14362;51.902;7.626;2023-03-31T22:36:30;4.65;;;2.95;;
26774;SDS011;14362;51.902;7.626;2023-03-31T22:40:34;6.32;;;3.20;;
26774;SDS011;14362;51.902;7.626;2023-03-31T22:44:35;4.97;;;3.03;;
26774;SDS011;14362;51.902;7.626;2023-03-31T22:48:39;3.42;;;2.50;;
26774;SDS011;14362;51.902;7.626;2023-03-31T22:52:40;8.23;;;2.65;;
26774;SDS011;14362;51.902;7.626;2023-03-31T22:56:45;5.45;;;2.42;;
26774;SDS011;14362;51.902;7.626;2023-03-31T23:00:53;6.72;;;2.63;;
26774;SDS011;14362;51.902;7.626;2023-03-31T23:04:56;10.15;;;2.55;;
26774;SDS011;14362;51.902;7.626;2023-03-31T23:08:57;5.75;;;2.60;;
26774;SDS011;14362;51.902;7.626;2023-03-31T23:13:00;6.30;;;2.40;;
26774;SDS011;14362;51.902;7.626;2023-03-31T23:17:02;5.47;;;2.00;;
26774;SDS011;14362;51.902;7.626;2023-03-31T23:21:04;5.25;;;2.00;;
26774;SDS011;14362;51.902;7.626;2023-03-31T23:25:06;5.60;;;2.03;;
26774;SDS011;14362;51.902;7.626;2023-03-31T23:29:09;4.95;;;1.95;;
26774;SDS011;14362;51.902;7.626;2023-03-31T23:33:10;4.90;;;2.00;;
26774;SDS011;14362;51.902;7.626;2023-03-31T23:37:12;3.00;;;1.65;;
26774;SDS011;14362;51.902;7.626;2023-03-31T23:41:14;6.20;;;1.95;;
26774;SDS011;14362;51.902;7.626;2023-03-31T23:45:18;5.30;;;1.40;;
26774;SDS011;14362;51.902;7.626;2023-03-31T23:49:20;8.57;;;1.80;;
26774;SDS011;14362;51.902;7.626;2023-03-31T23:53:21;3.78;;;1.80;;
26774;SDS011;14362;51.902;7.626;2023-03-31T23:57:23;5.22;;;2.55;;
